Time;durP1;ratioP1;P1;durP2;ratioP2;P2;SDS_P1;SDS_P2;PMS_P1;PMS_P2;Temp;Humidity;BMP_temperature;BMP_pressure;BME280_temperature;BME280_humidity;BME280_pressure;Samples;Min_cycle;Max_cycle;Signal;HPM_P1;HPM_P2
2022/01/09 00:03:14;;;;;;;0.70;0.70;;;;;;;;;;8358921;28;20047;-66
2022/01/09 00:07:14;;;;;;;0.70;0.70;;;;;;;;;;8361174;28;20316;-66
2022/01/09 00:11:15;;;;;;;0.82;0.60;;;;;;;;;;8357968;28;20343;-66
2022/01/09 00:15:15;;;;;;;0.57;0.55;;;;;;;;;;8357907;28;20469;-66
2022/01/09 00:19:16;;;;;;;0.85;0.70;;;;;;;;;;8358612;28;20028;-66
2022/01/09 00:23:16;;;;;;;0.50;0.50;;;;;;;;;;8359571;28;20035;-66
2022/01/09 00:27:16;;;;;;;0.52;0.52;;;;;;;;;;8357309;28;20106;-66
2022/01/09 00:31:16;;;;;;;1.08;0.60;;;;;;;;;;8357892;28;20037;-66
2022/01/09 00:35:17;;;;;;;1.20;0.50;;;;;;;;;;8356102;28;20028;-66
2022/01/09 00:39:17;;;;;;;0.40;0.40;;;;;;;;;;8363304;28;20042;-67
2022/01/09 00:43:17;;;;;;;0.55;0.50;;;;;;;;;;8363629;28;20021;-66
2022/01/09 00:47:17;;;;;;;0.50;0.50;;;;;;;;;;8360133;28;20043;-66
2022/01/09 00:51:18;;;;;;;0.40;0.40;;;;;;;;;;8364103;28;20048;-66
2022/01/09 00:55:18;;;;;;;0.40;0.40;;;;;;;;;;8364250;28;20070;-66
2022/01/09 00:59:19;;;;;;;0.40;0.40;;;;;;;;;;8364934;28;20477;-66
2022/01/09 01:03:19;;;;;;;0.50;0.50;;;;;;;;;;8360122;28;20283;-66
2022/01/09 01:07:20;;;;;;;0.47;0.47;;;;;;;;;;8363314;28;20036;-66
2022/01/09 01:11:20;;;;;;;0.40;0.40;;;;;;;;;;8363988;28;20036;-66
2022/01/09 01:15:20;;;;;;;0.50;0.50;;;;;;;;;;8363895;28;20506;-67
2022/01/09 01:19:20;;;;;;;0.50;0.50;;;;;;;;;;8363205;28;20020;-66
2022/01/09 01:23:21;;;;;;;0.40;0.40;;;;;;;;;;8362679;28;20151;-66
2022/01/09 01:27:21;;;;;;;0.38;0.38;;;;;;;;;;8354775;28;20091;-66
2022/01/09 01:31:21;;;;;;;0.65;0.40;;;;;;;;;;8357877;28;20636;-66
2022/01/09 01:35:21;;;;;;;0.30;0.30;;;;;;;;;;8357082;28;20025;-66
2022/01/09 01:39:22;;;;;;;0.30;0.30;;;;;;;;;;8359667;28;20028;-66
2022/01/09 01:43:22;;;;;;;0.30;0.30;;;;;;;;;;8358351;28;20441;-66
2022/01/09 01:47:23;;;;;;;0.30;0.30;;;;;;;;;;8358904;28;20041;-67
2022/01/09 01:51:23;;;;;;;1.75;0.32;;;;;;;;;;8359444;28;20032;-66
2022/01/09 01:55:23;;;;;;;0.85;0.40;;;;;;;;;;8359822;28;20576;-66
2022/01/09 01:59:23;;;;;;;0.40;0.40;;;;;;;;;;8359636;28;20029;-66
2022/01/09 02:03:23;;;;;;;0.30;0.30;;;;;;;;;;8359987;28;20499;-66
2022/01/09 02:07:25;;;;;;;0.40;0.40;;;;;;;;;;8361423;28;20424;-66
2022/01/09 02:11:25;;;;;;;0.32;0.32;;;;;;;;;;8358865;28;20148;-66
2022/01/09 02:15:34;;;;;;;1.07;0.50;;;;;;;;;;8357391;28;20029;-66
2022/01/09 02:19:35;;;;;;;0.50;0.50;;;;;;;;;;8358817;28;20424;-66
2022/01/09 02:23:37;;;;;;;0.80;0.50;;;;;;;;;;8357958;28;20286;-66
2022/01/09 02:27:37;;;;;;;0.50;0.50;;;;;;;;;;8358636;28;20020;-66
2022/01/09 02:31:37;;;;;;;0.70;0.50;;;;;;;;;;8358132;28;20068;-66
2022/01/09 02:35:38;;;;;;;0.55;0.50;;;;;;;;;;8356531;28;20028;-66
2022/01/09 02:39:38;;;;;;;0.50;0.50;;;;;;;;;;8359013;28;20310;-66
2022/01/09 02:43:38;;;;;;;0.50;0.50;;;;;;;;;;8357521;28;20278;-66
2022/01/09 02:47:39;;;;;;;0.30;0.30;;;;;;;;;;8356366;28;20039;-66
2022/01/09 02:51:40;;;;;;;0.68;0.68;;;;;;;;;;8358303;28;20381;-66
2022/01/09 02:55:40;;;;;;;0.75;0.50;;;;;;;;;;8357971;28;20103;-66
2022/01/09 02:59:40;;;;;;;0.60;0.60;;;;;;;;;;8357393;28;20312;-66
2022/01/09 03:03:41;;;;;;;1.00;0.55;;;;;;;;;;8355082;28;20154;-66
2022/01/09 03:07:41;;;;;;;0.40;0.40;;;;;;;;;;8356805;28;20028;-66
2022/01/09 03:11:42;;;;;;;1.90;0.52;;;;;;;;;;8356866;28;20051;-66
2022/01/09 03:15:42;;;;;;;0.40;0.40;;;;;;;;;;8354487;28;20246;-66
2022/01/09 03:19:42;;;;;;;0.30;0.30;;;;;;;;;;8355454;28;20017;-66
2022/01/09 03:23:42;;;;;;;0.40;0.40;;;;;;;;;;8357163;28;20044;-66
2022/01/09 03:27:45;;;;;;;0.60;0.60;;;;;;;;;;8356477;28;20024;-66
2022/01/09 03:31:45;;;;;;;0.50;0.50;;;;;;;;;;8357468;28;20068;-66
2022/01/09 03:35:45;;;;;;;0.40;0.30;;;;;;;;;;8356335;28;20113;-66
2022/01/09 03:39:45;;;;;;;0.40;0.40;;;;;;;;;;8356818;28;20143;-66
2022/01/09 03:43:46;;;;;;;0.30;0.30;;;;;;;;;;8356075;28;20025;-66
2022/01/09 03:47:46;;;;;;;0.30;0.30;;;;;;;;;;8354921;28;20524;-66
2022/01/09 03:51:50;;;;;;;1.17;0.40;;;;;;;;;;8357128;28;20028;-66
2022/01/09 03:55:50;;;;;;;0.30;0.30;;;;;;;;;;8356498;28;20021;-66
2022/01/09 03:59:50;;;;;;;0.30;0.30;;;;;;;;;;8357011;28;20032;-66
2022/01/09 04:03:51;;;;;;;0.32;0.32;;;;;;;;;;8354895;28;20087;-66
2022/01/09 04:07:51;;;;;;;0.63;0.57;;;;;;;;;;8356270;28;20020;-66
2022/01/09 04:11:55;;;;;;;1.50;0.60;;;;;;;;;;8359723;28;20239;-66
2022/01/09 04:15:55;;;;;;;;;;;;;;;;;;8360726;28;20467;-66
2022/01/09 04:19:56;;;;;;;0.30;0.30;;;;;;;;;;8360892;28;20047;-65
2022/01/09 04:23:56;;;;;;;0.40;0.40;;;;;;;;;;8360928;28;20033;-66
2022/01/09 04:27:56;;;;;;;0.20;0.20;;;;;;;;;;8361031;28;20036;-66
2022/01/09 04:31:56;;;;;;;0.30;0.30;;;;;;;;;;8360323;28;20118;-65
2022/01/09 04:35:56;;;;;;;0.30;0.30;;;;;;;;;;8359284;28;20033;-66
2022/01/09 04:39:57;;;;;;;0.95;0.30;;;;;;;;;;8361447;28;20040;-66
2022/01/09 04:43:57;;;;;;;0.30;0.30;;;;;;;;;;8360261;28;20106;-66
2022/01/09 04:48:02;;;;;;;0.55;0.50;;;;;;;;;;8358918;28;21454;-66
2022/01/09 04:52:04;;;;;;;;;;;;;;;;;;8361313;28;20028;-66
2022/01/09 04:56:04;;;;;;;0.70;0.40;;;;;;;;;;8359159;28;20034;-66
2022/01/09 05:00:04;;;;;;;1.13;0.50;;;;;;;;;;8361048;28;20434;-66
2022/01/09 05:04:05;;;;;;;1.17;0.40;;;;;;;;;;8360322;28;20715;-66
2022/01/09 05:08:05;;;;;;;0.80;0.60;;;;;;;;;;8360030;28;20513;-66
2022/01/09 05:12:05;;;;;;;0.50;0.50;;;;;;;;;;8360729;28;20297;-66
2022/01/09 05:16:06;;;;;;;0.73;0.50;;;;;;;;;;8358439;28;20043;-65
2022/01/09 05:20:06;;;;;;;1.43;0.67;;;;;;;;;;8358944;28;20050;-65
2022/01/09 05:24:06;;;;;;;1.25;0.60;;;;;;;;;;8359091;28;20258;-65
2022/01/09 05:28:06;;;;;;;2.83;0.60;;;;;;;;;;8358937;28;20573;-66
2022/01/09 05:32:07;;;;;;;1.30;0.77;;;;;;;;;;8359137;28;20035;-66
2022/01/09 05:36:07;;;;;;;1.20;0.63;;;;;;;;;;8359198;28;20072;-65
2022/01/09 05:40:07;;;;;;;5.30;1.13;;;;;;;;;;8358554;28;20036;-65
2022/01/09 05:44:08;;;;;;;1.67;1.17;;;;;;;;;;8358583;28;20028;-65
2022/01/09 05:48:08;;;;;;;5.90;1.17;;;;;;;;;;8357957;28;20035;-66
2022/01/09 05:52:08;;;;;;;4.07;1.38;;;;;;;;;;8358321;28;20024;-66
2022/01/09 05:56:09;;;;;;;5.38;1.17;;;;;;;;;;8358166;28;20285;-66
2022/01/09 06:00:09;;;;;;;3.72;1.13;;;;;;;;;;8358275;28;20029;-65
2022/01/09 06:04:09;;;;;;;3.47;1.23;;;;;;;;;;8357327;28;20504;-66
2022/01/09 06:08:09;;;;;;;5.20;1.70;;;;;;;;;;8359304;28;20528;-65
2022/01/09 06:12:09;;;;;;;9.50;1.88;;;;;;;;;;8357491;28;20059;-66
2022/01/09 06:16:10;;;;;;;6.82;1.80;;;;;;;;;;8357274;28;20545;-65
2022/01/09 06:20:11;;;;;;;9.35;1.85;;;;;;;;;;8357274;28;20641;-65
2022/01/09 06:24:11;;;;;;;8.18;1.55;;;;;;;;;;8357664;28;20028;-65
2022/01/09 06:28:11;;;;;;;13.55;2.17;;;;;;;;;;8357029;28;20017;-66
2022/01/09 06:32:12;;;;;;;9.00;1.70;;;;;;;;;;8356639;28;20044;-66
2022/01/09 06:36:12;;;;;;;10.03;2.07;;;;;;;;;;8354766;28;20544;-66
2022/01/09 06:40:12;;;;;;;15.63;2.42;;;;;;;;;;8357530;28;20732;-66
2022/01/09 06:44:12;;;;;;;10.30;1.88;;;;;;;;;;8355949;28;20123;-65
2022/01/09 06:48:12;;;;;;;7.57;1.75;;;;;;;;;;8355985;28;20051;-66
2022/01/09 06:52:13;;;;;;;12.23;2.70;;;;;;;;;;8356871;28;20548;-66
2022/01/09 06:56:13;;;;;;;13.52;2.35;;;;;;;;;;8355735;28;20551;-65
2022/01/09 07:00:14;;;;;;;7.35;2.03;;;;;;;;;;8357342;28;20028;-66
2022/01/09 07:04:14;;;;;;;11.70;2.55;;;;;;;;;;8357137;28;20036;-66
2022/01/09 07:08:15;;;;;;;11.35;2.42;;;;;;;;;;8356026;28;20020;-65
2022/01/09 07:12:15;;;;;;;12.82;2.60;;;;;;;;;;8355171;28;20098;-65
2022/01/09 07:16:15;;;;;;;12.57;2.20;;;;;;;;;;8356923;28;20037;-66
2022/01/09 07:20:15;;;;;;;13.82;2.03;;;;;;;;;;8349106;28;20370;-66
2022/01/09 07:24:15;;;;;;;14.15;2.33;;;;;;;;;;8353772;28;20085;-66
2022/01/09 07:28:16;;;;;;;7.43;1.70;;;;;;;;;;8351073;28;20016;-66
2022/01/09 07:32:16;;;;;;;4.22;1.50;;;;;;;;;;8350532;28;20666;-66
2022/01/09 07:36:19;;;;;;;7.80;2.15;;;;;;;;;;8351021;28;20025;-66
2022/01/09 07:40:20;;;;;;;7.55;1.80;;;;;;;;;;8352256;28;20043;-66
2022/01/09 07:44:20;;;;;;;6.57;1.63;;;;;;;;;;8352209;28;20032;-66
2022/01/09 07:48:23;;;;;;;7.22;1.80;;;;;;;;;;8357052;28;20225;-66
2022/01/09 07:52:23;;;;;;;7.70;1.38;;;;;;;;;;8356392;28;20075;-66
2022/01/09 07:56:23;;;;;;;8.48;1.60;;;;;;;;;;8357066;28;20028;-66
2022/01/09 08:00:24;;;;;;;5.95;1.30;;;;;;;;;;8358367;28;20131;-66
2022/01/09 08:04:24;;;;;;;2.28;0.90;;;;;;;;;;8356827;28;20256;-65
2022/01/09 08:08:24;;;;;;;7.60;1.40;;;;;;;;;;8357925;28;20033;-66
2022/01/09 08:12:24;;;;;;;6.32;1.15;;;;;;;;;;8356248;28;20020;-66
2022/01/09 08:16:25;;;;;;;6.22;1.10;;;;;;;;;;8358181;28;20424;-66
2022/01/09 08:20:25;;;;;;;4.30;1.45;;;;;;;;;;8356641;28;20021;-66
2022/01/09 08:24:25;;;;;;;4.78;1.40;;;;;;;;;;8357047;28;20039;-66
2022/01/09 08:28:25;;;;;;;4.57;1.50;;;;;;;;;;8357134;28;20028;-66
2022/01/09 08:32:25;;;;;;;9.13;1.40;;;;;;;;;;8357655;28;20036;-66
2022/01/09 08:36:25;;;;;;;8.43;1.88;;;;;;;;;;8355733;28;20031;-65
2022/01/09 08:40:26;;;;;;;8.45;1.70;;;;;;;;;;8357999;28;20048;-66
2022/01/09 08:44:26;;;;;;;9.15;1.77;;;;;;;;;;8357115;28;20472;-66
2022/01/09 08:48:26;;;;;;;5.93;1.58;;;;;;;;;;8355630;28;20032;-66
2022/01/09 08:52:26;;;;;;;10.43;2.13;;;;;;;;;;8356586;28;20067;-66
2022/01/09 08:56:27;;;;;;;7.97;1.75;;;;;;;;;;8353774;28;20132;-66
2022/01/09 09:00:27;;;;;;;9.50;1.85;;;;;;;;;;8356812;28;20249;-66
2022/01/09 09:04:28;;;;;;;7.32;1.60;;;;;;;;;;8355509;28;20428;-66
2022/01/09 09:08:28;;;;;;;7.47;2.08;;;;;;;;;;8355485;28;20374;-66
2022/01/09 09:12:28;;;;;;;8.93;1.95;;;;;;;;;;8355383;28;20020;-66
2022/01/09 09:16:29;;;;;;;8.20;1.70;;;;;;;;;;8355603;28;20263;-66
2022/01/09 09:20:29;;;;;;;9.20;1.92;;;;;;;;;;8354220;28;20028;-66
2022/01/09 09:24:29;;;;;;;8.38;1.70;;;;;;;;;;8356197;28;20553;-66
2022/01/09 09:28:30;;;;;;;15.23;2.13;;;;;;;;;;8356274;28;20031;-66
2022/01/09 09:32:30;;;;;;;7.43;1.67;;;;;;;;;;8353485;28;20044;-66
2022/01/09 09:36:30;;;;;;;8.65;1.70;;;;;;;;;;8355398;28;20751;-66
2022/01/09 09:40:31;;;;;;;6.80;1.33;;;;;;;;;;8355701;28;20114;-66
2022/01/09 09:44:31;;;;;;;11.07;1.85;;;;;;;;;;8355498;28;20962;-66
2022/01/09 09:48:31;;;;;;;9.20;1.73;;;;;;;;;;8354428;28;20041;-66
2022/01/09 09:52:31;;;;;;;9.73;1.88;;;;;;;;;;8354037;28;20287;-66
2022/01/09 09:56:31;;;;;;;9.82;1.83;;;;;;;;;;8353007;28;22200;-66
2022/01/09 10:00:33;;;;;;;6.85;1.90;;;;;;;;;;8355020;28;21303;-66
2022/01/09 10:04:34;;;;;;;10.30;1.80;;;;;;;;;;8352035;28;20028;-66
2022/01/09 10:08:35;;;;;;;7.57;1.85;;;;;;;;;;8353381;28;20483;-66
2022/01/09 10:12:36;;;;;;;6.22;1.58;;;;;;;;;;8353726;28;20341;-66
2022/01/09 10:16:37;;;;;;;11.38;1.92;;;;;;;;;;8352539;28;20127;-66
2022/01/09 10:20:37;;;;;;;8.02;1.98;;;;;;;;;;8353600;28;20048;-66
2022/01/09 10:24:37;;;;;;;8.85;1.88;;;;;;;;;;8353354;28;20592;-66
2022/01/09 10:28:38;;;;;;;9.63;1.70;;;;;;;;;;8356343;28;20107;-66
2022/01/09 10:32:38;;;;;;;7.78;1.83;;;;;;;;;;8350952;28;20351;-66
2022/01/09 10:36:40;;;;;;;7.38;2.00;;;;;;;;;;8351862;28;20107;-67
2022/01/09 10:40:41;;;;;;;9.45;1.60;;;;;;;;;;8356279;28;20052;-66
2022/01/09 10:44:43;;;;;;;7.43;1.63;;;;;;;;;;8353637;28;20071;-66
2022/01/09 10:48:43;;;;;;;8.18;1.58;;;;;;;;;;8353017;28;20039;-66
2022/01/09 10:52:43;;;;;;;8.13;1.60;;;;;;;;;;8354475;28;20020;-66
2022/01/09 10:56:44;;;;;;;10.77;2.40;;;;;;;;;;8353479;28;20462;-66
2022/01/09 11:00:44;;;;;;;7.38;1.65;;;;;;;;;;8352294;28;20700;-67
2022/01/09 11:04:45;;;;;;;7.22;1.45;;;;;;;;;;8353400;28;20094;-66
2022/01/09 11:08:46;;;;;;;7.50;1.40;;;;;;;;;;8351781;28;20028;-66
2022/01/09 11:12:48;;;;;;;6.45;1.40;;;;;;;;;;8352049;28;20534;-67
2022/01/09 11:16:52;;;;;;;6.55;1.45;;;;;;;;;;8352476;28;20576;-67
2022/01/09 11:20:52;;;;;;;6.17;1.20;;;;;;;;;;8350854;28;20106;-66
2022/01/09 11:24:55;;;;;;;6.70;1.27;;;;;;;;;;8353271;28;20024;-66
2022/01/09 11:28:56;;;;;;;7.88;1.90;;;;;;;;;;8352154;28;20047;-66
2022/01/09 11:32:57;;;;;;;5.35;1.60;;;;;;;;;;8350505;28;20079;-66
2022/01/09 11:37:09;;;;;;;2.60;1.40;;;;;;;;;;8352868;28;20454;-66
2022/01/09 11:41:16;;;;;;;3.80;1.20;;;;;;;;;;8351841;28;20447;-66
2022/01/09 11:45:16;;;;;;;12.60;1.60;;;;;;;;;;8350720;28;20024;-66
2022/01/09 11:49:20;;;;;;;6.88;1.42;;;;;;;;;;8351954;28;20610;-66
2022/01/09 11:53:20;;;;;;;7.22;1.48;;;;;;;;;;8350491;28;20032;-66
2022/01/09 11:57:47;;;;;;;9.55;1.73;;;;;;;;;;8350944;28;20064;-66
2022/01/09 12:01:48;;;;;;;5.65;1.30;;;;;;;;;;8352930;28;20040;-66
2022/01/09 12:06:08;;;;;;;8.43;1.80;;;;;;;;;;8350632;28;20355;-66
2022/01/09 12:10:28;;;;;;;3.30;1.40;;;;;;;;;;8352028;28;20033;-66
2022/01/09 12:15:02;;;;;;;7.90;1.73;;;;;;;;;;8351083;28;20336;-66
2022/01/09 12:19:02;;;;;;;7.35;1.50;;;;;;;;;;8351533;28;20127;-66
2022/01/09 12:23:06;;;;;;;7.95;1.58;;;;;;;;;;8352020;28;20089;-66
2022/01/09 12:27:25;;;;;;;5.07;1.67;;;;;;;;;;8350927;28;20024;-66
2022/01/09 12:31:27;;;;;;;9.30;1.75;;;;;;;;;;8354092;28;20075;-66
2022/01/09 12:35:27;;;;;;;5.63;1.08;;;;;;;;;;8358213;28;20182;-66
2022/01/09 12:39:27;;;;;;;5.40;1.30;;;;;;;;;;8356204;28;20025;-66
2022/01/09 12:43:28;;;;;;;5.63;1.58;;;;;;;;;;8357189;28;20578;-66
2022/01/09 12:47:40;;;;;;;5.20;1.40;;;;;;;;;;8356356;28;20102;-66
2022/01/09 12:51:45;;;;;;;7.20;1.40;;;;;;;;;;8357219;28;20131;-67
2022/01/09 12:55:56;;;;;;;4.32;1.38;;;;;;;;;;8359000;28;20447;-66
2022/01/09 12:59:56;;;;;;;5.90;1.27;;;;;;;;;;8359485;28;20063;-66
2022/01/09 13:03:58;;;;;;;4.05;1.33;;;;;;;;;;8361344;28;20439;-66
2022/01/09 13:07:59;;;;;;;5.60;1.10;;;;;;;;;;8360373;28;20067;-66
2022/01/09 13:12:00;;;;;;;7.97;1.42;;;;;;;;;;8359240;28;20025;-66
2022/01/09 13:16:11;;;;;;;4.00;1.58;;;;;;;;;;8360599;28;20446;-66
2022/01/09 13:20:17;;;;;;;6.18;1.10;;;;;;;;;;8360172;28;20187;-66
2022/01/09 13:24:18;;;;;;;8.85;1.38;;;;;;;;;;8360308;28;20032;-66
2022/01/09 13:28:19;;;;;;;4.85;0.82;;;;;;;;;;8347775;28;20567;-66
2022/01/09 13:32:21;;;;;;;7.55;1.20;;;;;;;;;;8358498;28;20040;-66
2022/01/09 13:36:35;;;;;;;7.15;1.45;;;;;;;;;;8359918;28;20949;-67
2022/01/09 13:40:36;;;;;;;7.00;1.65;;;;;;;;;;8360378;28;20424;-66
2022/01/09 13:44:38;;;;;;;5.60;1.45;;;;;;;;;;8359244;28;20131;-66
2022/01/09 13:48:42;;;;;;;8.75;1.67;;;;;;;;;;8358662;28;20036;-66
2022/01/09 13:52:43;;;;;;;5.10;1.45;;;;;;;;;;8359583;28;20865;-66
2022/01/09 13:56:43;;;;;;;6.50;1.38;;;;;;;;;;8358532;28;20083;-66
2022/01/09 14:00:45;;;;;;;6.35;1.40;;;;;;;;;;8358347;28;20083;-66
2022/01/09 14:04:46;;;;;;;8.45;1.40;;;;;;;;;;8356839;28;20028;-66
2022/01/09 14:08:49;;;;;;;8.13;1.95;;;;;;;;;;8358313;28;20574;-66
2022/01/09 14:12:49;;;;;;;10.57;1.80;;;;;;;;;;8358704;28;20033;-66
2022/01/09 14:16:49;;;;;;;5.30;1.30;;;;;;;;;;8357588;28;20032;-66
2022/01/09 14:20:51;;;;;;;8.57;1.98;;;;;;;;;;8358694;28;20059;-66
2022/01/09 14:25:03;;;;;;;9.82;1.30;;;;;;;;;;8358194;28;20033;-66
2022/01/09 14:29:03;;;;;;;6.80;1.30;;;;;;;;;;8357847;28;20028;-66
2022/01/09 14:33:17;;;;;;;3.42;1.15;;;;;;;;;;8357501;28;20122;-66
2022/01/09 14:37:18;;;;;;;;;;;;;;;;;;8357850;28;20029;-66
2022/01/09 14:41:23;;;;;;;2.80;1.00;;;;;;;;;;8358556;28;20079;-66
2022/01/09 14:45:23;;;;;;;3.90;1.63;;;;;;;;;;8355801;28;20040;-66
2022/01/09 14:49:25;;;;;;;2.47;1.17;;;;;;;;;;8357630;28;20082;-66
2022/01/09 14:53:25;;;;;;;3.47;1.00;;;;;;;;;;8358273;28;20287;-66
2022/01/09 14:57:26;;;;;;;6.78;1.45;;;;;;;;;;8357813;28;20489;-66
2022/01/09 15:01:27;;;;;;;3.47;1.30;;;;;;;;;;8356349;28;20044;-66
2022/01/09 15:05:28;;;;;;;4.60;1.30;;;;;;;;;;8357082;28;20114;-66
2022/01/09 15:09:28;;;;;;;2.78;0.90;;;;;;;;;;8359773;28;20571;-66
2022/01/09 15:13:28;;;;;;;2.85;0.93;;;;;;;;;;8356251;28;20261;-66
2022/01/09 15:17:29;;;;;;;5.85;1.55;;;;;;;;;;8356342;28;20032;-66
2022/01/09 15:21:29;;;;;;;4.50;1.80;;;;;;;;;;8355087;28;20048;-66
2022/01/09 15:25:32;;;;;;;7.40;2.35;;;;;;;;;;8357767;28;20040;-66
2022/01/09 15:29:32;;;;;;;4.25;1.50;;;;;;;;;;8357454;28;20477;-66
2022/01/09 15:33:32;;;;;;;3.15;1.67;;;;;;;;;;8354755;28;20128;-66
2022/01/09 15:37:37;;;;;;;4.20;2.13;;;;;;;;;;8356736;28;20706;-66
2022/01/09 15:41:37;;;;;;;;;;;;;;;;;;8358258;28;20028;-66
2022/01/09 15:45:37;;;;;;;7.45;2.97;;;;;;;;;;8355175;28;19916;-66
2022/01/09 15:49:38;;;;;;;8.32;2.25;;;;;;;;;;8357000;28;20382;-66
2022/01/09 15:53:38;;;;;;;4.18;1.80;;;;;;;;;;8356490;28;20013;-66
2022/01/09 15:57:42;;;;;;;5.22;1.73;;;;;;;;;;8354323;28;20166;-66
2022/01/09 16:01:43;;;;;;;5.13;1.63;;;;;;;;;;8356950;28;20256;-66
2022/01/09 16:05:43;;;;;;;4.70;1.80;;;;;;;;;;8356600;28;20089;-66
2022/01/09 16:09:43;;;;;;;3.10;1.60;;;;;;;;;;8363856;28;20024;-66
2022/01/09 16:13:43;;;;;;;5.18;2.20;;;;;;;;;;8361723;28;20366;-66
2022/01/09 16:17:44;;;;;;;4.80;2.03;;;;;;;;;;8360003;28;20035;-66
2022/01/09 16:21:44;;;;;;;3.83;1.58;;;;;;;;;;8362614;28;20040;-66
2022/01/09 16:25:44;;;;;;;4.18;1.73;;;;;;;;;;8362161;28;20031;-66
2022/01/09 16:29:45;;;;;;;6.75;2.10;;;;;;;;;;8361117;28;20048;-66
2022/01/09 16:33:45;;;;;;;3.85;1.98;;;;;;;;;;8358753;28;20044;-66
2022/01/09 16:37:45;;;;;;;11.32;3.42;;;;;;;;;;8359723;28;20135;-66
2022/01/09 16:41:47;;;;;;;4.70;2.42;;;;;;;;;;8361515;28;20824;-66
2022/01/09 16:45:47;;;;;;;4.22;2.50;;;;;;;;;;8360093;28;20029;-66
2022/01/09 16:49:47;;;;;;;11.73;6.35;;;;;;;;;;8337298;28;20038;-66
2022/01/09 16:53:47;;;;;;;8.40;4.63;;;;;;;;;;8354967;28;20513;-66
2022/01/09 16:57:48;;;;;;;6.10;3.20;;;;;;;;;;8357703;28;20147;-66
2022/01/09 17:01:48;;;;;;;9.65;4.78;;;;;;;;;;8350140;28;20040;-66
2022/01/09 17:05:48;;;;;;;5.57;2.20;;;;;;;;;;8355062;28;20029;-66
2022/01/09 17:09:49;;;;;;;5.13;1.85;;;;;;;;;;8357482;28;20051;-66
2022/01/09 17:13:50;;;;;;;5.53;2.00;;;;;;;;;;8355023;28;20017;-66
2022/01/09 17:17:51;;;;;;;23.95;8.77;;;;;;;;;;8354073;28;20273;-66
2022/01/09 17:21:51;;;;;;;18.27;6.80;;;;;;;;;;8356463;28;20043;-66
2022/01/09 17:25:52;;;;;;;9.77;4.07;;;;;;;;;;8354788;28;20556;-66
2022/01/09 17:29:53;;;;;;;7.53;3.00;;;;;;;;;;8357255;28;20051;-66
2022/01/09 17:33:53;;;;;;;14.27;5.10;;;;;;;;;;8353928;28;20159;-66
2022/01/09 17:37:53;;;;;;;10.00;2.30;;;;;;;;;;8353652;28;20251;-66
2022/01/09 17:41:53;;;;;;;12.68;3.42;;;;;;;;;;8353493;28;20025;-66
2022/01/09 17:45:53;;;;;;;11.00;3.00;;;;;;;;;;8353987;28;20031;-66
2022/01/09 17:49:55;;;;;;;9.52;2.38;;;;;;;;;;8352730;28;20613;-66
2022/01/09 17:53:57;;;;;;;10.65;3.35;;;;;;;;;;8352955;28;20028;-66
2022/01/09 17:57:57;;;;;;;20.50;5.78;;;;;;;;;;8350951;28;20041;-66
2022/01/09 18:01:57;;;;;;;5.43;2.72;;;;;;;;;;8353603;28;20110;-66
2022/01/09 18:05:57;;;;;;;9.48;2.90;;;;;;;;;;8352746;28;21104;-66
2022/01/09 18:09:58;;;;;;;8.18;2.10;;;;;;;;;;8353363;28;20497;-66
2022/01/09 18:13:58;;;;;;;4.15;1.65;;;;;;;;;;8351897;28;20127;-66
2022/01/09 18:17:59;;;;;;;11.88;5.05;;;;;;;;;;8350035;28;20064;-66
2022/01/09 18:21:59;;;;;;;14.15;4.10;;;;;;;;;;8351926;28;20401;-65
2022/01/09 18:25:59;;;;;;;7.57;2.78;;;;;;;;;;8350771;28;20024;-66
2022/01/09 18:30:00;;;;;;;14.57;4.63;;;;;;;;;;8351964;28;20036;-65
2022/01/09 18:34:00;;;;;;;27.58;5.88;;;;;;;;;;8351383;28;20119;-66
2022/01/09 18:38:01;;;;;;;11.52;3.60;;;;;;;;;;8353254;28;20082;-67
2022/01/09 18:42:03;;;;;;;15.18;2.70;;;;;;;;;;8351936;28;20032;-66
2022/01/09 18:46:04;;;;;;;28.75;8.32;;;;;;;;;;8355124;28;20154;-66
2022/01/09 18:50:04;;;;;;;12.68;2.67;;;;;;;;;;8352378;28;20273;-66
2022/01/09 18:54:04;;;;;;;14.38;4.03;;;;;;;;;;8353372;28;20028;-66
2022/01/09 18:58:05;;;;;;;13.20;3.65;;;;;;;;;;8352530;28;20059;-66
2022/01/09 19:02:05;;;;;;;22.52;6.50;;;;;;;;;;8351328;28;20024;-65
2022/01/09 19:06:05;;;;;;;8.02;1.90;;;;;;;;;;8351840;28;20603;-65
2022/01/09 19:10:06;;;;;;;9.93;2.58;;;;;;;;;;8351977;28;20040;-65
2022/01/09 19:14:06;;;;;;;11.68;2.80;;;;;;;;;;8350088;28;20035;-65
2022/01/09 19:18:07;;;;;;;21.88;4.03;;;;;;;;;;8351914;28;20051;-65
2022/01/09 19:22:07;;;;;;;7.82;2.20;;;;;;;;;;8353151;28;20028;-66
2022/01/09 19:26:07;;;;;;;11.75;2.58;;;;;;;;;;8351475;28;20452;-66
2022/01/09 19:30:09;;;;;;;11.07;2.13;;;;;;;;;;8353259;28;20670;-66
2022/01/09 19:34:09;;;;;;;7.97;2.08;;;;;;;;;;8351619;28;20082;-66
2022/01/09 19:38:12;;;;;;;3.47;1.17;;;;;;;;;;8352419;28;20020;-66
2022/01/09 19:42:12;;;;;;;4.20;1.67;;;;;;;;;;8357605;28;20028;-66
2022/01/09 19:46:12;;;;;;;12.48;1.58;;;;;;;;;;8358458;28;20097;-66
2022/01/09 19:50:13;;;;;;;5.68;1.58;;;;;;;;;;8358439;28;20051;-66
2022/01/09 19:54:13;;;;;;;7.80;1.80;;;;;;;;;;8359854;28;20492;-66
2022/01/09 19:58:13;;;;;;;5.68;1.85;;;;;;;;;;8358294;28;20033;-66
2022/01/09 20:02:14;;;;;;;7.40;1.63;;;;;;;;;;8363158;28;20406;-66
2022/01/09 20:06:15;;;;;;;6.03;2.10;;;;;;;;;;8356511;28;20267;-65
2022/01/09 20:10:16;;;;;;;9.97;2.23;;;;;;;;;;8362140;28;20508;-65
2022/01/09 20:14:17;;;;;;;6.53;2.15;;;;;;;;;;8362249;28;20314;-66
2022/01/09 20:18:17;;;;;;;9.90;2.28;;;;;;;;;;8360526;28;20029;-66
2022/01/09 20:22:17;;;;;;;10.85;2.65;;;;;;;;;;8361429;28;20051;-66
2022/01/09 20:26:17;;;;;;;8.57;2.83;;;;;;;;;;8362393;28;20342;-66
2022/01/09 20:30:17;;;;;;;9.80;2.63;;;;;;;;;;8360705;28;20039;-65
2022/01/09 20:34:20;;;;;;;10.57;3.30;;;;;;;;;;8360681;28;20099;-66
2022/01/09 20:38:20;;;;;;;11.57;2.42;;;;;;;;;;8361468;28;20028;-66
2022/01/09 20:42:21;;;;;;;5.78;1.30;;;;;;;;;;8360371;28;20086;-65
2022/01/09 20:46:21;;;;;;;7.53;2.00;;;;;;;;;;8361378;28;20066;-65
2022/01/09 20:50:21;;;;;;;10.30;2.10;;;;;;;;;;8361710;28;20568;-66
2022/01/09 20:54:23;;;;;;;10.40;1.70;;;;;;;;;;8358957;28;20112;-65
2022/01/09 20:58:23;;;;;;;6.82;1.60;;;;;;;;;;8359957;28;20028;-66
2022/01/09 21:02:23;;;;;;;10.57;2.10;;;;;;;;;;8360824;28;20645;-65
2022/01/09 21:06:23;;;;;;;9.82;2.10;;;;;;;;;;8360601;28;20032;-65
2022/01/09 21:10:24;;;;;;;3.22;1.65;;;;;;;;;;8360978;28;20115;-66
2022/01/09 21:14:24;;;;;;;4.75;1.70;;;;;;;;;;8358927;28;20309;-66
2022/01/09 21:18:25;;;;;;;9.07;1.70;;;;;;;;;;8359807;28;20025;-66
2022/01/09 21:22:25;;;;;;;10.13;2.60;;;;;;;;;;8359437;28;20033;-65
2022/01/09 21:26:25;;;;;;;6.55;2.50;;;;;;;;;;8359709;28;20029;-66
2022/01/09 21:30:26;;;;;;;8.27;1.67;;;;;;;;;;8360027;28;20025;-65
2022/01/09 21:34:28;;;;;;;9.85;1.98;;;;;;;;;;8359540;28;20028;-65
2022/01/09 21:38:28;;;;;;;10.02;1.60;;;;;;;;;;8358540;28;20079;-66
2022/01/09 21:42:28;;;;;;;6.28;1.60;;;;;;;;;;8360312;28;20566;-66
2022/01/09 21:46:28;;;;;;;8.63;1.63;;;;;;;;;;8358043;28;20330;-66
2022/01/09 21:50:28;;;;;;;4.03;1.67;;;;;;;;;;8358914;28;20274;-65
2022/01/09 21:54:29;;;;;;;9.90;1.60;;;;;;;;;;8359457;28;20037;-65
2022/01/09 21:58:29;;;;;;;5.63;1.80;;;;;;;;;;8357845;28;20031;-66
2022/01/09 22:02:30;;;;;;;5.95;1.45;;;;;;;;;;8358803;28;20036;-66
2022/01/09 22:06:30;;;;;;;6.28;1.60;;;;;;;;;;8358496;28;20040;-65
2022/01/09 22:10:32;;;;;;;8.95;1.70;;;;;;;;;;8357371;28;20127;-65
2022/01/09 22:14:32;;;;;;;7.97;1.70;;;;;;;;;;8357554;28;20040;-65
2022/01/09 22:18:33;;;;;;;5.70;1.53;;;;;;;;;;8358429;28;20028;-65
2022/01/09 22:22:33;;;;;;;7.75;2.13;;;;;;;;;;8357655;28;20643;-66
2022/01/09 22:26:33;;;;;;;8.67;2.33;;;;;;;;;;8359091;28;20094;-65
2022/01/09 22:30:34;;;;;;;8.45;1.90;;;;;;;;;;8357752;28;20290;-66
2022/01/09 22:34:34;;;;;;;12.38;3.75;;;;;;;;;;8357103;28;20038;-65
2022/01/09 22:38:34;;;;;;;7.82;2.70;;;;;;;;;;8358486;28;20082;-65
2022/01/09 22:42:34;;;;;;;7.13;1.95;;;;;;;;;;8356711;28;20031;-66
2022/01/09 22:46:35;;;;;;;4.25;1.40;;;;;;;;;;8357272;28;20055;-65
2022/01/09 22:50:35;;;;;;;9.53;1.77;;;;;;;;;;8357786;28;20477;-66
2022/01/09 22:54:35;;;;;;;11.75;2.40;;;;;;;;;;8357159;28;20663;-66
2022/01/09 22:58:35;;;;;;;6.72;1.60;;;;;;;;;;8357044;28;20048;-66
2022/01/09 23:02:35;;;;;;;10.35;1.95;;;;;;;;;;8356918;28;20109;-66
2022/01/09 23:06:35;;;;;;;8.98;1.75;;;;;;;;;;8355785;28;20081;-65
2022/01/09 23:10:36;;;;;;;4.10;1.38;;;;;;;;;;8357349;28;20020;-65
2022/01/09 23:14:36;;;;;;;10.48;2.05;;;;;;;;;;8343956;28;20125;-66
2022/01/09 23:18:37;;;;;;;5.78;1.60;;;;;;;;;;8355971;28;20027;-65
2022/01/09 23:22:37;;;;;;;6.18;1.75;;;;;;;;;;8355771;28;20017;-65
2022/01/09 23:26:37;;;;;;;7.60;1.63;;;;;;;;;;8354160;28;20032;-66
2022/01/09 23:30:37;;;;;;;10.05;2.25;;;;;;;;;;8356896;28;20025;-66
2022/01/09 23:34:38;;;;;;;6.28;1.90;;;;;;;;;;8355597;28;20025;-66
2022/01/09 23:38:38;;;;;;;7.43;2.87;;;;;;;;;;8356309;28;20016;-65
2022/01/09 23:42:42;;;;;;;7.32;2.03;;;;;;;;;;8356061;28;20781;-65
2022/01/09 23:46:44;;;;;;;8.48;1.85;;;;;;;;;;8356710;28;20569;-66
2022/01/09 23:50:44;;;;;;;10.13;1.63;;;;;;;;;;8355982;28;20367;-66
2022/01/09 23:54:44;;;;;;;9.88;2.22;;;;;;;;;;8357560;28;20086;-66
2022/01/09 23:58:44;;;;;;;6.32;2.33;;;;;;;;;;8355330;28;20012;-65
